• Join FlightAware (Why Join?)
  • Login
  • US Flag 
07:57PM EDT


 

Airport Tracker/Info


-or-


 

Live Flight TrackerFlight Track Log ✈ N790CA ✈ 02-May-2013 ✈ KSRQ - KILM

Flight Track Log - Related Links

Times and Time Zones

All times are in EDT time to prevent confusion due to time zone crossing. See the N790CA flight status page for this flight to view local times or setup timezone preferences in your user account.

Time Position Orientation Groundspeed Altitude Reporting Facility
EDT Latitude Longitude Course Direction KTS MPH feet Rate Location/Type
08:59AM 27.3833 -82.5500 138° Southeast 128 147 600  Level Tampa TRACON
08:59AM 27.3667 -82.5333 138° Southeast 140 161 1,100 960 Climbing Tampa TRACON
09:00AM 27.3333 -82.5333 180° South 158 182 1,900 1,080 Climbing Tampa TRACON
09:01AM 27.3167 -82.5833 249° West 167 192 3,300 1,620 Climbing Tampa TRACON
09:02AM 27.3167 -82.6167 270° West 137 158 5,200 1,620 Climbing Tampa TRACON
09:04AM 27.3317 -82.6725 287° West 46 53 7,200 1,440 Climbing Miami Center
09:05AM 27.3639 -82.7044 319° Northwest 105 121 8,700 1,440 Climbing Miami Center
09:06AM 27.3958 -82.7367 318° Northwest 136 157 10,100 1,380 Climbing Miami Center
09:07AM 27.4328 -82.7572 334° Northwest 146 168 11,500 1,320 Climbing Miami Center
09:08AM 27.4783 -82.7594 358° North 146 168 12,800 1,200 Climbing Miami Center
09:09AM 27.5264 -82.7619 357° North 162 186 14,000 1,260 Climbing Miami Center
09:10AM 27.5764 -82.7644 357° North 172 198 15,400 1,320 Climbing Miami Center
09:11AM 27.6264 -82.7647 360° North 177 204 16,700 1,320 Climbing Miami Center
09:13AM 27.7575 -82.7683 359° North 189 217 19,900 1,320 Climbing Jacksonville Center
09:14AM 27.8139 -82.7683 360° North 200 230 21,200 1,260 Climbing Jacksonville Center
09:15AM 27.8725 -82.7728 356° North 200 230 22,500 1,200 Climbing Jacksonville Center
09:16AM 27.9308 -82.7750 358° North 200 230 23,700 720 Climbing Jacksonville Center
09:17AM 27.9975 -82.7728 North 211 243 24,000 120 Climbing Jacksonville Center
09:18AM 28.0706 -82.7608 North 237 273 24,000  Level Jacksonville Center
09:19AM 28.1519 -82.7583 North 267 307 24,000  Level Jacksonville Center
09:20AM 28.2375 -82.7511 North 288 331 24,000  Level Jacksonville Center
09:21AM 28.3189 -82.7442 North 294 338 24,000  Level Jacksonville Center
09:22AM 28.4022 -82.7344 North 294 338 24,000 600 Level Jacksonville Center
09:23AM 28.4817 -82.7272 North 294 338 25,300 1,380 Climbing Jacksonville Center
09:24AM 28.5483 -82.7247 North 263 303 26,800 960 Climbing Jacksonville Center
09:25AM 28.6047 -82.7200 North 244 281 27,300 600 Climbing Jacksonville Center
09:26AM 28.6694 -82.7128 North 229 264 28,100 780 Climbing Jacksonville Center
09:27AM 28.7403 -82.7056 North 224 258 28,900 780 Climbing Jacksonville Center
09:28AM 28.8072 -82.7006 North 230 265 29,700 540 Climbing Jacksonville Center
09:29AM 28.8761 -82.6933 North 235 270 30,000 120 Climbing Jacksonville Center
09:30AM 28.9511 -82.6861 North 245 282 30,000  Level Jacksonville Center
09:31AM 29.0283 -82.6789 North 258 297 30,000  Level Jacksonville Center
09:32AM 29.1097 -82.6714 North 276 318 30,000  Level Jacksonville Center
09:33AM 29.1911 -82.6642 North 286 329 30,000  Level Jacksonville Center
09:34AM 29.2747 -82.6569 North 291 335 30,000  Level Jacksonville Center
09:35AM 29.3581 -82.6494 North 291 335 30,000  Level Jacksonville Center
09:36AM 29.4417 -82.6422 North 291 335 30,000  Level Jacksonville Center
09:37AM 29.5250 -82.6347 North 291 335 30,100 480 Climbing Jacksonville Center
09:38AM 29.6003 -82.6297 North 291 335 31,000 420 Climbing Jacksonville Center
09:39AM 29.6775 -82.6225 North 285 328 31,000  Level Jacksonville Center
09:40AM 29.7567 -82.6150 North 285 328 31,000  Level Jacksonville Center
09:41AM 29.8383 -82.6078 North 285 328 31,000  Level Jacksonville Center
09:42AM 29.9175 -82.6025 North 285 328 31,000  Level Jacksonville Center
09:43AM 29.9989 -82.5953 North 285 328 31,000  Level Jacksonville Center
09:44AM 30.0803 -82.5900 North 291 335 31,000  Level Jacksonville Center
09:45AM 30.1617 -82.5828 North 291 335 31,000  Level Jacksonville Center
09:46AM 30.2431 -82.5753 North 291 335 31,000  Level Jacksonville Center
09:47AM 30.3244 -82.5700 North 291 335 31,000  Level Jacksonville Center
09:48AM 30.4081 -82.5625 North 291 335 31,000  Level Jacksonville Center
09:49AM 30.4917 -82.5550 North 291 335 31,000  Level Jacksonville Center
09:50AM 30.5542 -82.4994 37° Northeast 280 322 31,000  Level Jacksonville Center
09:51AM 30.6103 -82.4317 46° Northeast 275 316 31,000  Level Jacksonville Center
09:52AM 30.6683 -82.3636 45° Northeast 280 322 31,000  Level Jacksonville Center
09:53AM 30.7244 -82.2958 46° Northeast 285 328 31,000  Level Jacksonville Center
09:54AM 30.7825 -82.2300 44° Northeast 285 328 31,000  Level Jacksonville Center
09:55AM 30.8406 -82.1619 45° Northeast 285 328 31,000  Level Jacksonville Center
09:56AM 30.8989 -82.0961 44° Northeast 285 328 31,000  Level Jacksonville Center
09:57AM 30.9589 -82.0253 45° Northeast 285 328 31,000  Level Jacksonville Center
09:58AM 31.0169 -81.9594 44° Northeast 285 328 31,000  Level Jacksonville Center
09:59AM 31.0664 -81.8958 48° Northeast 285 328 31,000  Level Jacksonville Center
10:00AM 31.1264 -81.8272 44° Northeast 285 328 31,000  Level Jacksonville Center
10:01AM 31.1822 -81.7586 46° Northeast 285 328 31,000  Level Jacksonville Center
10:02AM 31.2422 -81.6922 43° Northeast 285 328 31,000  Level Jacksonville Center
10:03AM 31.2978 -81.6211 48° Northeast 285 328 31,000  Level Jacksonville Center
10:04AM 31.3597 -81.5472 46° Northeast 285 328 31,000  Level Jacksonville Center
10:05AM 31.4133 -81.4831 46° Northeast 274 315 31,000  Level Jacksonville Center
10:06AM 31.4669 -81.4214 44° Northeast 269 310 31,000  Level Jacksonville Center
10:07AM 31.5164 -81.3622 46° Northeast 259 298 31,000  Level Jacksonville Center
10:08AM 31.5617 -81.3078 46° Northeast 251 289 31,000  Level Jacksonville Center
10:09AM 31.6192 -81.2383 46° Northeast 252 290 31,000  Level Jacksonville Center
10:10AM 31.6725 -81.1739 46° Northeast 259 298 31,000  Level Jacksonville Center
10:11AM 31.7219 -81.1144 46° Northeast 269 310 31,000  Level Jacksonville Center
10:12AM 31.7856 -81.0375 46° Northeast 284 327 31,000  Level Jacksonville Center
10:13AM 31.8347 -80.9753 47° Northeast 284 327 31,000  Level Jacksonville Center
10:14AM 31.8983 -80.9006 45° Northeast 279 321 31,000  Level Jacksonville Center
10:15AM 31.9536 -80.8333 46° Northeast 279 321 31,000  Level Jacksonville Center
10:16AM 32.0067 -80.7708 45° Northeast 279 321 31,000  Level Jacksonville Center
10:17AM 32.0681 -80.6958 46° Northeast 279 321 31,000  Level Jacksonville Center
10:18AM 32.1192 -80.6333 46° Northeast 279 321 31,000  Level Jacksonville Center
10:19AM 32.1764 -80.5608 47° Northeast 279 321 31,000  Level Jacksonville Center
10:20AM 32.2336 -80.4931 45° Northeast 279 321 31,000  Level Jacksonville Center
10:21AM 32.2906 -80.4203 47° Northeast 284 327 31,000  Level Jacksonville Center
10:22AM 32.3497 -80.3497 45° Northeast 284 327 31,000  Level Jacksonville Center
10:23AM 32.4067 -80.2794 46° Northeast 284 327 31,000  Level Jacksonville Center
10:24AM 32.4639 -80.2111 45° Northeast 284 327 31,000  Level Jacksonville Center
10:25AM 32.5231 -80.1456 43° Northeast 284 327 31,000  Level Jacksonville Center
10:26AM 32.5861 -80.0794 41° Northeast 290 334 31,000  Level Jacksonville Center
10:27AM 32.6453 -80.0136 43° Northeast 290 334 31,000  Level Jacksonville Center
10:28AM 32.7022 -79.9500 43° Northeast 290 334 31,000  Level Jacksonville Center
10:29AM 32.7694 -79.8761 43° Northeast 295 339 31,000  Level Jacksonville Center
10:30AM 32.8303 -79.8097 43° Northeast 295 339 31,000  Level Jacksonville Center
10:31AM 32.8894 -79.7483 41° Northeast 295 339 31,000  Level Jacksonville Center
10:32AM 32.9503 -79.6794 44° Northeast 290 334 31,000  Level Jacksonville Center
10:33AM 33.0092 -79.6156 42° Northeast 290 334 31,000  Level Jacksonville Center
10:34AM 33.0700 -79.5489 43° Northeast 290 334 31,000 -300 Level Jacksonville Center
10:35AM 33.1308 -79.4819 43° Northeast 290 334 30,500 -960 Descending Jacksonville Center
10:36AM 33.1936 -79.4125 43° Northeast 295 339 29,100 -1,440 Descending Jacksonville Center
10:37AM 33.2586 -79.3431 42° Northeast 300 345 27,700 -1,380 Descending Jacksonville Center
10:38AM 33.3233 -79.2708 43° Northeast 306 352 26,400 -1,380 Descending Jacksonville Center
10:39AM 33.3858 -79.2011 43° Northeast 306 352 25,000 -1,200 Descending Jacksonville Center
10:40AM 33.4486 -79.1314 43° Northeast 306 352 24,100 -540 Descending Jacksonville Center
10:41AM 33.4992 -79.0744 43° Northeast 281 323 24,000 -300 Descending Jacksonville Center
10:42AM 33.5517 -79.0172 42° Northeast 261 300 23,500 -960 Descending Jacksonville Center
10:43AM 33.6058 -78.9550 44° Northeast 261 300 22,100 -1,440 Descending Jacksonville Center
10:44AM 33.6664 -78.8875 43° Northeast 273 314 20,700 -1,380 Descending Jacksonville Center
10:45AM 33.7269 -78.8222 42° Northeast 278 320 19,400 -1,440 Descending Jacksonville Center
10:46AM 33.7853 -78.7572 43° Northeast 283 326 17,900 -1,320 Descending Jacksonville Center
10:48AM 33.8817 -78.6008 53° Northeast 267 307 15,500 -1,260 Descending Washington Center
10:49AM 33.9253 -78.5250 55° Northeast 272 313 14,100 -1,440 Descending Washington Center
10:50AM 33.9689 -78.4464 56° Northeast 277 319 12,700 -1,440 Descending Washington Center
10:51AM 34.0125 -78.3678 56° Northeast 277 319 11,200 -1,080 Descending Washington Center
10:52AM 34.0536 -78.2939 56° Northeast 277 319 10,600 -1,080 Descending Washington Center
10:53AM 34.0886 -78.2222 59° Northeast 265 305 9,100 -1,620 Descending Washington Center
10:54AM 34.1092 -78.1503 71° East 244 281 7,500 -1,680 Descending Washington Center
10:55AM 34.1394 -78.0886 59° Northeast 220 253 5,800 -1,800 Descending Washington Center
10:56AM 34.1742 -78.0344 52° Northeast 209 241 3,900 -1,920 Descending Washington Center
10:57AM 34.2125 -77.9903 44° Northeast 188 216 2,000 -1,920 Descending Washington Center